createdAt,value
2022-11-13T00:00:11.943Z,23.37
2022-11-13T00:01:11.942Z,23.37
2022-11-13T00:02:12.029Z,23.47
2022-11-13T00:03:11.949Z,23.37
2022-11-13T00:04:11.942Z,23.37
2022-11-13T00:05:11.942Z,23.57
2022-11-13T00:06:11.944Z,23.47
2022-11-13T00:07:12.108Z,23.37
2022-11-13T00:08:11.942Z,23.57
2022-11-13T00:09:11.941Z,23.57
2022-11-13T00:10:11.942Z,23.57
2022-11-13T00:11:11.940Z,23.57
2022-11-13T00:12:11.942Z,23.57
2022-11-13T00:13:11.941Z,23.57
2022-11-13T00:14:11.938Z,23.57
2022-11-13T00:15:11.940Z,23.66
2022-11-13T00:16:11.938Z,23.47
2022-11-13T00:17:11.940Z,23.47
2022-11-13T00:18:11.940Z,23.76
2022-11-13T00:19:11.939Z,23.37
2022-11-13T00:20:11.937Z,23.37
2022-11-13T00:21:11.939Z,23.47
2022-11-13T00:22:11.936Z,23.47
2022-11-13T00:23:12.055Z,23.66
2022-11-13T00:24:11.938Z,23.37
2022-11-13T00:25:11.937Z,23.37
2022-11-13T00:26:11.936Z,23.76
2022-11-13T00:27:11.936Z,23.57
2022-11-13T00:28:11.935Z,23.57
2022-11-13T00:29:11.939Z,23.57
2022-11-13T00:30:17.896Z,23.57
2022-11-13T00:31:11.933Z,23.66
2022-11-13T00:32:11.934Z,23.57
2022-11-13T00:33:11.934Z,23.66
2022-11-13T00:34:41.040Z,23.57
2022-11-13T00:35:11.933Z,23.66
2022-11-13T00:36:11.934Z,23.18
2022-11-13T00:37:11.934Z,23.18
2022-11-13T00:38:11.931Z,23.08
2022-11-13T00:39:12.052Z,23.18
2022-11-13T00:40:11.931Z,23.27
2022-11-13T00:41:11.935Z,23.47
2022-11-13T00:42:11.930Z,23.18
2022-11-13T00:43:11.930Z,23.08
2022-11-13T00:44:11.932Z,23.37
2022-11-13T00:45:11.931Z,23.27
2022-11-13T00:46:11.932Z,23.27
2022-11-13T00:47:11.933Z,23.37
2022-11-13T00:48:11.930Z,23.37
2022-11-13T00:49:11.931Z,23.27
2022-11-13T00:50:11.934Z,23.37
2022-11-13T00:51:11.929Z,23.57
2022-11-13T00:52:11.933Z,23.27
2022-11-13T00:53:17.812Z,23.27
2022-11-13T00:54:11.930Z,23.27
2022-11-13T00:55:12.049Z,23.47
2022-11-13T00:56:11.927Z,23.18
2022-11-13T00:57:11.928Z,23.27
2022-11-13T00:58:11.926Z,23.47
2022-11-13T00:59:11.941Z,23.47
2022-11-13T01:00:11.927Z,23.47
2022-11-13T01:01:12.025Z,23.37
2022-11-13T01:02:11.926Z,23.47
2022-11-13T01:03:11.930Z,23.47
2022-11-13T01:04:11.923Z,23.47
2022-11-13T01:05:11.925Z,23.47
2022-11-13T01:06:11.926Z,23.27
2022-11-13T01:07:12.049Z,23.47
2022-11-13T01:08:11.964Z,23.37
2022-11-13T01:09:11.936Z,23.37
2022-11-13T01:10:11.955Z,23.37
2022-11-13T01:11:12.087Z,23.47
2022-11-13T01:12:11.955Z,23.76
2022-11-13T01:13:11.934Z,23.37
2022-11-13T01:14:11.941Z,23.37
2022-11-13T01:15:11.934Z,23.47
2022-11-13T01:16:11.941Z,23.18
2022-11-13T01:17:11.921Z,23.37
2022-11-13T01:18:11.925Z,23.37
2022-11-13T01:19:11.929Z,23.57
2022-11-13T01:20:11.918Z,23.37
2022-11-13T01:21:11.919Z,23.57
2022-11-13T01:22:11.920Z,23.27
2022-11-13T01:23:11.921Z,23.47
2022-11-13T01:24:11.916Z,23.47
2022-11-13T01:25:11.931Z,23.27
2022-11-13T01:26:11.918Z,23.27
2022-11-13T01:27:12.033Z,23.57
2022-11-13T01:28:11.915Z,23.57
2022-11-13T01:29:11.917Z,23.47
2022-11-13T01:30:11.915Z,23.18
2022-11-13T01:31:11.916Z,23.37
2022-11-13T01:32:11.915Z,23.27
2022-11-13T01:33:11.933Z,23.08
2022-11-13T01:34:11.915Z,23.18
2022-11-13T01:35:11.916Z,23.27
2022-11-13T01:36:11.914Z,23.37
2022-11-13T01:37:11.919Z,23.18
2022-11-13T01:38:11.913Z,23.27
2022-11-13T01:39:11.912Z,23.18
2022-11-13T01:40:11.912Z,23.27
2022-11-13T01:41:11.913Z,23.27
2022-11-13T01:42:11.912Z,23.08
2022-11-13T01:43:12.026Z,23.19
2022-11-13T01:44:11.910Z,23.47
2022-11-13T01:45:11.911Z,23.18
2022-11-13T01:46:11.910Z,23.27
2022-11-13T01:47:11.910Z,23.37
2022-11-13T01:48:11.910Z,23.37
2022-11-13T01:49:11.921Z,23.27
2022-11-13T01:50:11.909Z,23.37
2022-11-13T01:51:11.908Z,23.27
2022-11-13T01:52:11.908Z,23.37
2022-11-13T01:53:11.914Z,23.37
2022-11-13T01:54:11.908Z,23.27
2022-11-13T01:55:11.907Z,23.47
2022-11-13T01:56:11.907Z,23.27
2022-11-13T01:57:11.908Z,23.18
2022-11-13T01:58:11.907Z,23.18
2022-11-13T01:59:12.025Z,23.37
2022-11-13T02:00:11.910Z,23.27
2022-11-13T02:01:11.906Z,23.18
2022-11-13T02:02:11.960Z,23.37
2022-11-13T02:03:11.907Z,23.27
2022-11-13T02:04:11.905Z,23.27
2022-11-13T02:05:11.904Z,23.18
2022-11-13T02:06:11.903Z,23.27
2022-11-13T02:07:11.912Z,23.27
2022-11-13T02:08:11.903Z,23.27
2022-11-13T02:09:11.905Z,23.27
2022-11-13T02:10:11.901Z,23.27
2022-11-13T02:11:11.902Z,23.18
2022-11-13T02:12:11.901Z,23.27
2022-11-13T02:13:11.902Z,23.27
2022-11-13T02:14:11.901Z,23.27
2022-11-13T02:15:12.023Z,23.18
2022-11-13T02:16:11.900Z,23.27
2022-11-13T02:17:11.900Z,23.27
2022-11-13T02:18:11.899Z,23.37
2022-11-13T02:19:11.902Z,23.27
2022-11-13T02:20:11.899Z,23.47
2022-11-13T02:21:11.899Z,23.18
2022-11-13T02:22:11.899Z,23.37
2022-11-13T02:23:11.899Z,23.27
2022-11-13T02:24:11.897Z,23.27
2022-11-13T02:25:11.898Z,23.38
2022-11-13T02:26:11.897Z,23.37
2022-11-13T02:27:11.897Z,23.27
2022-11-13T02:28:11.896Z,23.27
2022-11-13T02:29:11.898Z,23.47
2022-11-13T02:30:16.112Z,23.47
2022-11-13T02:31:12.043Z,23.47
2022-11-13T02:32:11.897Z,23.27
2022-11-13T02:33:11.896Z,23.27
2022-11-13T02:34:11.898Z,23.27
2022-11-13T02:35:11.896Z,23.27
2022-11-13T02:36:11.898Z,23.27
2022-11-13T02:37:11.894Z,23.27
2022-11-13T02:38:11.893Z,23.27
2022-11-13T02:39:11.894Z,23.27
2022-11-13T02:40:11.894Z,23.47
2022-11-13T02:41:11.893Z,23.27
2022-11-13T02:42:11.891Z,23.27
2022-11-13T02:43:11.892Z,23.18
2022-11-13T02:44:11.891Z,23.18
2022-11-13T02:45:11.896Z,23.18
2022-11-13T02:46:11.892Z,23.27
2022-11-13T02:47:12.008Z,23.18
2022-11-13T02:48:11.889Z,23.18
2022-11-13T02:49:11.890Z,23.18
2022-11-13T02:50:11.894Z,23.18
2022-11-13T02:51:11.889Z,23.18
2022-11-13T02:52:11.933Z,23.18
2022-11-13T02:53:11.890Z,23.18
2022-11-13T02:54:16.667Z,23.18
2022-11-13T02:55:11.889Z,23.18
2022-11-13T02:56:11.887Z,23.27
2022-11-13T02:57:11.888Z,23.47
2022-11-13T02:58:11.888Z,23.18
2022-11-13T02:59:11.886Z,23.27
2022-11-13T03:00:13.997Z,23.27
2022-11-13T03:01:11.904Z,23.27
2022-11-13T03:02:11.886Z,23.37
2022-11-13T03:03:12.001Z,23.37
2022-11-13T03:04:11.896Z,23.18
2022-11-13T03:05:13.654Z,23.18
2022-11-13T03:06:11.885Z,23.08
2022-11-13T03:07:11.912Z,23.18
2022-11-13T03:08:11.883Z,23.37
2022-11-13T03:09:11.884Z,23.37
2022-11-13T03:10:11.883Z,23.08
2022-11-13T03:11:11.886Z,23.08
2022-11-13T03:12:11.882Z,23.37
2022-11-13T03:13:11.882Z,23.18
2022-11-13T03:14:11.881Z,22.99
2022-11-13T03:15:11.881Z,23.37
2022-11-13T03:16:11.881Z,22.99
2022-11-13T03:17:11.892Z,23.08
2022-11-13T03:18:11.882Z,23.08
2022-11-13T03:19:11.999Z,23.08
2022-11-13T03:20:11.878Z,23.27
2022-11-13T03:21:11.881Z,23.08
2022-11-13T03:22:11.882Z,23.08
2022-11-13T03:23:11.880Z,23.08
2022-11-13T03:24:11.877Z,23.18
2022-11-13T03:25:11.881Z,23.27
2022-11-13T03:26:11.877Z,23.18
2022-11-13T03:27:11.879Z,23.08
2022-11-13T03:28:11.877Z,23.08
2022-11-13T03:29:11.876Z,23.08
2022-11-13T03:30:11.884Z,23.27
2022-11-13T03:31:11.876Z,23.08
2022-11-13T03:32:11.874Z,23.18
2022-11-13T03:33:11.876Z,23.18
2022-11-13T03:34:11.874Z,23.08
2022-11-13T03:35:11.991Z,23.08
2022-11-13T03:36:11.874Z,23.18
2022-11-13T03:37:11.873Z,23.27
2022-11-13T03:38:11.873Z,23.08
2022-11-13T03:39:11.875Z,23.18
2022-11-13T03:40:11.871Z,23.18
2022-11-13T03:41:11.874Z,23.18
2022-11-13T03:42:11.874Z,23.18
2022-11-13T03:43:11.872Z,23.08
2022-11-13T03:44:11.871Z,23.08
2022-11-13T03:45:11.871Z,23.08
2022-11-13T03:46:11.870Z,23.18
2022-11-13T03:47:11.871Z,23.08
2022-11-13T03:48:11.871Z,23.18
2022-11-13T03:49:11.873Z,23.08
2022-11-13T03:50:11.868Z,23.08
2022-11-13T03:51:11.983Z,23.18
2022-11-13T03:52:11.868Z,23.18
2022-11-13T03:53:11.873Z,23.18
2022-11-13T03:54:11.872Z,23.08
2022-11-13T03:55:11.868Z,23.08
2022-11-13T03:56:11.866Z,23.08
2022-11-13T03:57:11.867Z,23.08
2022-11-13T03:58:11.867Z,23.18
2022-11-13T03:59:11.866Z,23.18
2022-11-13T04:00:11.865Z,23.08
2022-11-13T04:01:11.865Z,23.08
2022-11-13T04:02:11.865Z,23.18
2022-11-13T04:03:11.865Z,23.18
2022-11-13T04:04:11.873Z,23.18
2022-11-13T04:05:11.865Z,23.08
2022-11-13T04:06:11.862Z,23.08
2022-11-13T04:07:12.028Z,23.18
2022-11-13T04:08:11.862Z,23.18
2022-11-13T04:09:11.862Z,23.18
2022-11-13T04:10:12.013Z,23.18
2022-11-13T04:11:11.863Z,23.18
2022-11-13T04:12:11.861Z,23.08
2022-11-13T04:13:11.861Z,23.18
2022-11-13T04:14:11.860Z,22.99
2022-11-13T04:15:11.862Z,22.99
2022-11-13T04:16:11.859Z,23.18
2022-11-13T04:17:11.860Z,23.08
2022-11-13T04:18:11.858Z,23.18
2022-11-13T04:19:11.858Z,22.99
2022-11-13T04:20:11.860Z,22.99
2022-11-13T04:21:11.859Z,23.27
2022-11-13T04:22:11.857Z,22.99
2022-11-13T04:23:11.971Z,23.08
2022-11-13T04:24:11.856Z,23.08
2022-11-13T04:25:11.858Z,22.99
2022-11-13T04:26:11.857Z,23.08
2022-11-13T04:27:11.858Z,23.08
2022-11-13T04:28:11.855Z,23.08
2022-11-13T04:29:11.855Z,23.08
2022-11-13T04:30:11.857Z,23.08
2022-11-13T04:31:11.854Z,22.99
2022-11-13T04:32:11.858Z,23.08
2022-11-13T04:33:11.854Z,23.08
2022-11-13T04:34:11.860Z,23.18
2022-11-13T04:35:11.853Z,23.18
2022-11-13T04:36:11.855Z,23.18
2022-11-13T04:37:11.853Z,23.08
2022-11-13T04:38:11.853Z,23.08
2022-11-13T04:39:11.972Z,22.89
2022-11-13T04:40:11.851Z,22.99
2022-11-13T04:41:11.867Z,22.99
2022-11-13T04:42:11.851Z,22.89
2022-11-13T04:43:11.850Z,23.08
2022-11-13T04:44:11.850Z,22.99
2022-11-13T04:45:11.849Z,22.99
2022-11-13T04:46:11.851Z,22.99
2022-11-13T04:47:11.850Z,22.99
2022-11-13T04:48:11.851Z,22.89
2022-11-13T04:49:11.847Z,22.99
2022-11-13T04:50:11.849Z,22.99
2022-11-13T04:51:11.846Z,22.89
2022-11-13T04:52:11.847Z,22.89
2022-11-13T04:53:11.847Z,22.89
2022-11-13T04:54:11.848Z,22.89
2022-11-13T04:55:11.957Z,22.89
2022-11-13T04:56:11.846Z,22.99
2022-11-13T04:57:11.845Z,22.89
2022-11-13T04:58:11.846Z,22.99
2022-11-13T04:59:11.844Z,22.99
2022-11-13T05:00:11.845Z,22.89
2022-11-13T05:01:11.843Z,22.89
2022-11-13T05:02:11.846Z,22.89
2022-11-13T05:03:11.845Z,22.99
2022-11-13T05:04:11.844Z,22.99
2022-11-13T05:05:11.844Z,22.99
2022-11-13T05:06:11.843Z,22.79
2022-11-13T05:07:11.906Z,22.99
2022-11-13T05:08:11.841Z,22.79
2022-11-13T05:09:11.841Z,22.89
2022-11-13T05:10:11.842Z,22.89
2022-11-13T05:11:11.863Z,23.08
2022-11-13T05:12:11.842Z,22.89
2022-11-13T05:13:11.843Z,22.99
2022-11-13T05:14:11.844Z,22.89
2022-11-13T05:15:11.840Z,22.89
2022-11-13T05:16:11.839Z,22.89
2022-11-13T05:17:11.838Z,22.89
2022-11-13T05:18:11.839Z,22.89
2022-11-13T05:19:11.838Z,22.89
2022-11-13T05:20:11.840Z,22.89
2022-11-13T05:21:11.836Z,22.89
2022-11-13T05:22:11.837Z,22.99
2022-11-13T05:23:11.836Z,22.89
2022-11-13T05:24:11.841Z,22.99
2022-11-13T05:25:11.834Z,22.99
2022-11-13T05:26:11.836Z,22.99
2022-11-13T05:27:17.049Z,22.99
2022-11-13T05:28:11.837Z,22.89
2022-11-13T05:29:11.834Z,22.89
2022-11-13T05:30:11.834Z,22.89
2022-11-13T05:31:11.833Z,22.89
2022-11-13T05:32:11.832Z,22.89
2022-11-13T05:33:11.832Z,22.89
2022-11-13T05:34:11.833Z,22.79
2022-11-13T05:35:11.831Z,22.89
2022-11-13T05:36:11.832Z,22.79
2022-11-13T05:37:11.832Z,22.89
2022-11-13T05:38:11.831Z,22.89
2022-11-13T05:39:11.831Z,22.79
2022-11-13T05:40:11.832Z,22.89
2022-11-13T05:41:11.829Z,22.89
2022-11-13T05:42:11.829Z,22.99
2022-11-13T05:43:11.942Z,22.89
2022-11-13T05:44:11.829Z,22.89
2022-11-13T05:45:11.829Z,22.89
2022-11-13T05:46:11.829Z,22.89
2022-11-13T05:47:11.826Z,22.89
2022-11-13T05:48:11.827Z,22.99
2022-11-13T05:49:11.828Z,22.89
2022-11-13T05:50:11.828Z,22.89
2022-11-13T05:51:11.825Z,22.89
2022-11-13T05:52:11.826Z,22.89
2022-11-13T05:53:11.825Z,22.79
2022-11-13T05:54:11.826Z,22.99
2022-11-13T05:55:11.824Z,22.89
2022-11-13T05:56:11.824Z,22.89
2022-11-13T05:57:11.824Z,22.89
2022-11-13T05:58:11.847Z,22.89
2022-11-13T05:59:11.935Z,22.79
2022-11-13T06:00:11.823Z,22.99
2022-11-13T06:01:11.825Z,22.89
2022-11-13T06:02:11.888Z,22.99
2022-11-13T06:03:11.821Z,22.99
2022-11-13T06:04:11.825Z,22.89
2022-11-13T06:05:11.821Z,22.89
2022-11-13T06:06:11.825Z,22.99
2022-11-13T06:07:11.847Z,22.79
2022-11-13T06:08:11.820Z,22.79
2022-11-13T06:09:11.819Z,22.79
2022-11-13T06:10:11.820Z,22.79
2022-11-13T06:11:11.819Z,22.79
2022-11-13T06:12:11.820Z,22.79
2022-11-13T06:13:11.818Z,22.79
2022-11-13T06:14:11.819Z,22.79
2022-11-13T06:15:11.933Z,22.79
2022-11-13T06:16:11.818Z,22.79
2022-11-13T06:17:11.818Z,22.79
2022-11-13T06:18:11.818Z,22.69
2022-11-13T06:19:11.815Z,22.79
2022-11-13T06:20:11.821Z,22.79
2022-11-13T06:21:11.816Z,22.79
2022-11-13T06:22:11.817Z,22.79
2022-11-13T06:23:11.814Z,22.89
2022-11-13T06:24:11.815Z,22.69
2022-11-13T06:25:11.814Z,22.89
2022-11-13T06:26:11.816Z,22.69
2022-11-13T06:27:11.814Z,22.60
2022-11-13T06:28:11.813Z,22.69
2022-11-13T06:29:11.812Z,22.69
2022-11-13T06:30:11.813Z,22.60
2022-11-13T06:31:11.928Z,22.69
2022-11-13T06:32:11.813Z,22.60
2022-11-13T06:33:11.818Z,22.79
2022-11-13T06:34:11.811Z,22.69
2022-11-13T06:35:11.810Z,22.69
2022-11-13T06:36:11.810Z,22.60
2022-11-13T06:37:11.811Z,22.69
2022-11-13T06:38:11.811Z,22.69
2022-11-13T06:39:11.844Z,22.69
2022-11-13T06:40:11.810Z,22.60
2022-11-13T06:41:11.808Z,22.69
2022-11-13T06:42:11.809Z,22.69
2022-11-13T06:43:11.810Z,22.60
2022-11-13T06:44:11.808Z,22.89
2022-11-13T06:45:11.808Z,22.69
2022-11-13T06:46:11.809Z,22.69
2022-11-13T06:47:11.963Z,22.79
2022-11-13T06:48:11.809Z,22.69
2022-11-13T06:49:11.809Z,22.79
2022-11-13T06:50:11.807Z,22.69
2022-11-13T06:51:11.804Z,22.69
2022-11-13T06:52:11.806Z,22.69
2022-11-13T06:53:11.806Z,22.50
2022-11-13T06:54:11.806Z,22.69
2022-11-13T06:55:11.803Z,22.79
2022-11-13T06:56:11.812Z,22.69
2022-11-13T06:57:11.804Z,22.69
2022-11-13T06:58:11.806Z,22.79
2022-11-13T06:59:11.803Z,22.69
2022-11-13T07:00:11.803Z,22.69
2022-11-13T07:01:11.863Z,22.89
2022-11-13T07:02:11.802Z,22.69
2022-11-13T07:03:11.920Z,22.69
2022-11-13T07:04:11.801Z,22.69
2022-11-13T07:05:11.805Z,22.69
2022-11-13T07:06:11.803Z,22.60
2022-11-13T07:07:11.869Z,22.69
2022-11-13T07:08:11.800Z,22.60
2022-11-13T07:09:11.806Z,22.69
2022-11-13T07:10:11.801Z,22.69
2022-11-13T07:11:11.797Z,22.60
2022-11-13T07:12:11.800Z,22.60
2022-11-13T07:13:11.797Z,22.69
2022-11-13T07:14:11.798Z,22.69
2022-11-13T07:15:11.796Z,22.60
2022-11-13T07:16:16.912Z,22.60
2022-11-13T07:17:11.797Z,22.60
2022-11-13T07:18:11.797Z,22.79
2022-11-13T07:19:11.922Z,22.60
2022-11-13T07:20:11.798Z,22.60
2022-11-13T07:21:11.796Z,22.69
2022-11-13T07:22:11.798Z,22.69
2022-11-13T07:23:11.794Z,22.60
2022-11-13T07:24:16.789Z,22.60
2022-11-13T07:25:11.796Z,22.60
2022-11-13T07:26:11.794Z,22.79
2022-11-13T07:27:11.793Z,22.60
2022-11-13T07:28:11.793Z,22.60
2022-11-13T07:29:11.795Z,22.60
2022-11-13T07:30:11.801Z,22.60
2022-11-13T07:31:11.791Z,22.69
2022-11-13T07:32:11.793Z,22.60
2022-11-13T07:33:11.791Z,22.69
2022-11-13T07:34:11.796Z,22.69
2022-11-13T07:35:11.913Z,22.69
2022-11-13T07:36:11.796Z,22.69
2022-11-13T07:37:11.791Z,22.60
2022-11-13T07:38:11.792Z,22.79
2022-11-13T07:39:11.788Z,22.60
2022-11-13T07:40:11.792Z,22.69
2022-11-13T07:41:11.790Z,22.69
2022-11-13T07:42:11.790Z,22.60
2022-11-13T07:43:11.791Z,22.60
2022-11-13T07:44:21.946Z,22.69
2022-11-13T07:45:11.788Z,22.69
2022-11-13T07:46:11.788Z,22.60
2022-11-13T07:47:11.785Z,22.60
2022-11-13T07:48:11.787Z,22.69
2022-11-13T07:49:11.786Z,22.60
2022-11-13T07:50:11.791Z,22.40
2022-11-13T07:51:11.901Z,22.69
2022-11-13T07:52:11.787Z,22.60
2022-11-13T07:53:11.784Z,22.69
2022-11-13T07:54:11.787Z,22.60
2022-11-13T07:55:11.785Z,22.50
2022-11-13T07:56:11.784Z,22.60
2022-11-13T07:57:11.787Z,22.69
2022-11-13T07:58:11.790Z,22.69
2022-11-13T07:59:11.783Z,22.69
2022-11-13T08:00:11.784Z,22.69
2022-11-13T08:01:11.841Z,22.69
2022-11-13T08:02:11.783Z,22.69
2022-11-13T08:03:11.780Z,22.50
2022-11-13T08:04:11.785Z,22.60
2022-11-13T08:05:11.781Z,22.69
2022-11-13T08:06:11.786Z,22.50
2022-11-13T08:07:11.934Z,22.69
2022-11-13T08:08:11.780Z,22.50
2022-11-13T08:09:11.781Z,22.50
2022-11-13T08:10:11.931Z,22.60
2022-11-13T08:11:11.778Z,22.69
2022-11-13T08:12:11.781Z,22.60
2022-11-13T08:13:11.779Z,22.40
2022-11-13T08:14:11.779Z,22.60
2022-11-13T08:15:13.517Z,22.50
2022-11-13T08:16:11.776Z,22.60
2022-11-13T08:17:11.779Z,22.69
2022-11-13T08:18:11.778Z,22.79
2022-11-13T08:19:11.776Z,22.40
2022-11-13T08:20:11.775Z,22.40
2022-11-13T08:21:14.854Z,22.40
2022-11-13T08:22:11.775Z,22.50
2022-11-13T08:23:11.888Z,22.60
2022-11-13T08:24:11.780Z,22.60
2022-11-13T08:25:11.773Z,22.40
2022-11-13T08:26:11.774Z,22.60
2022-11-13T08:27:11.775Z,22.40
2022-11-13T08:28:13.287Z,22.50
2022-11-13T08:29:11.772Z,22.50
2022-11-13T08:30:11.773Z,22.50
2022-11-13T08:31:11.772Z,22.60
2022-11-13T08:32:11.770Z,22.30
2022-11-13T08:33:11.773Z,22.50
2022-11-13T08:34:11.772Z,22.50
2022-11-13T08:35:14.795Z,22.50
2022-11-13T08:36:11.772Z,22.50
2022-11-13T08:37:11.769Z,22.50
2022-11-13T08:38:11.770Z,22.50
2022-11-13T08:39:11.885Z,22.60
2022-11-13T08:40:11.769Z,22.50
2022-11-13T08:41:11.770Z,22.50
2022-11-13T08:42:11.769Z,22.50
2022-11-13T08:43:11.766Z,22.50
2022-11-13T08:44:11.768Z,22.60
2022-11-13T08:45:11.769Z,22.50
2022-11-13T08:46:11.769Z,22.30
2022-11-13T08:47:11.768Z,22.50
2022-11-13T08:48:11.765Z,22.50
2022-11-13T08:49:11.767Z,22.40
2022-11-13T08:50:11.768Z,22.50
2022-11-13T08:51:11.767Z,22.50
2022-11-13T08:52:11.766Z,22.50
2022-11-13T08:53:11.764Z,22.50
2022-11-13T08:54:11.764Z,22.50
2022-11-13T08:55:11.878Z,22.50
2022-11-13T08:56:11.767Z,22.30
2022-11-13T08:57:11.768Z,22.40
2022-11-13T08:58:11.761Z,22.40
2022-11-13T08:59:11.763Z,22.40
2022-11-13T09:00:11.763Z,22.50
2022-11-13T09:01:11.762Z,22.30
2022-11-13T09:02:11.761Z,22.40
2022-11-13T09:03:11.759Z,22.30
2022-11-13T09:04:11.803Z,22.50
2022-11-13T09:05:11.760Z,22.40
2022-11-13T09:06:11.759Z,22.40
2022-11-13T09:07:11.933Z,22.50
2022-11-13T09:08:11.757Z,22.50
2022-11-13T09:09:11.760Z,22.50
2022-11-13T09:10:11.759Z,22.40
2022-11-13T09:11:11.873Z,22.60
2022-11-13T09:12:11.755Z,22.50
2022-11-13T09:13:11.758Z,22.60
2022-11-13T09:14:11.757Z,22.60
2022-11-13T09:15:11.758Z,22.50
2022-11-13T09:16:11.754Z,22.40
2022-11-13T09:17:11.757Z,22.40
2022-11-13T09:18:11.758Z,22.50
2022-11-13T09:19:11.762Z,22.50
2022-11-13T09:20:14.033Z,22.50
2022-11-13T09:21:11.756Z,22.40
2022-11-13T09:22:11.759Z,22.50
2022-11-13T09:23:11.760Z,22.50
2022-11-13T09:24:11.751Z,22.50
2022-11-13T09:25:11.753Z,22.50
2022-11-13T09:26:11.752Z,22.40
2022-11-13T09:27:11.868Z,22.40
2022-11-13T09:28:11.752Z,22.50
2022-11-13T09:29:11.753Z,22.40
2022-11-13T09:30:11.751Z,22.30
2022-11-13T09:31:11.953Z,22.40
2022-11-13T09:32:11.749Z,22.30
2022-11-13T09:33:11.750Z,22.40
2022-11-13T09:34:11.748Z,22.50
2022-11-13T09:35:11.752Z,22.40
2022-11-13T09:36:11.749Z,22.40
2022-11-13T09:37:11.750Z,22.40
2022-11-13T09:38:11.896Z,22.40
2022-11-13T09:39:11.750Z,22.40
2022-11-13T09:40:11.746Z,22.30
2022-11-13T09:41:11.746Z,22.40
2022-11-13T09:42:11.749Z,22.40
2022-11-13T09:43:11.862Z,22.50
2022-11-13T09:44:11.745Z,22.40
2022-11-13T09:45:11.745Z,22.40
2022-11-13T09:46:11.743Z,22.30
2022-11-13T09:47:11.743Z,22.40
2022-11-13T09:48:11.745Z,22.40
2022-11-13T09:49:11.744Z,22.30
2022-11-13T09:50:11.750Z,22.30
2022-11-13T09:51:11.742Z,22.30
2022-11-13T09:52:11.742Z,22.40
2022-11-13T09:53:11.743Z,22.40
2022-11-13T09:54:11.742Z,22.40
2022-11-13T09:55:11.747Z,22.30
2022-11-13T09:56:11.739Z,22.40
2022-11-13T09:57:11.742Z,22.40
2022-11-13T09:58:11.740Z,22.50
2022-11-13T09:59:11.854Z,22.30
2022-11-13T10:00:11.743Z,22.40
2022-11-13T10:01:11.802Z,22.30
2022-11-13T10:02:11.739Z,22.30
2022-11-13T10:03:11.738Z,22.30
2022-11-13T10:04:14.270Z,22.30
2022-11-13T10:05:11.739Z,22.30
2022-11-13T10:06:11.747Z,22.30
2022-11-13T10:07:11.786Z,22.40
2022-11-13T10:08:11.736Z,22.30
2022-11-13T10:09:11.740Z,22.30
2022-11-13T10:10:11.838Z,22.40
2022-11-13T10:11:11.737Z,22.30
2022-11-13T10:12:11.734Z,22.30
2022-11-13T10:13:11.735Z,22.30
2022-11-13T10:14:11.735Z,22.20
2022-11-13T10:15:11.849Z,22.40
2022-11-13T10:16:11.733Z,22.40
2022-11-13T10:17:11.733Z,22.30
2022-11-13T10:18:11.734Z,22.20
2022-11-13T10:19:11.732Z,22.30
2022-11-13T10:20:11.731Z,22.30
2022-11-13T10:21:11.734Z,22.30
2022-11-13T10:22:32.202Z,22.30
2022-11-13T10:23:11.730Z,22.30
2022-11-13T10:24:14.274Z,22.20
2022-11-13T10:25:11.734Z,22.50
2022-11-13T10:26:11.730Z,22.30
2022-11-13T10:27:11.731Z,22.30
2022-11-13T10:28:43.125Z,22.50
2022-11-13T10:29:11.827Z,22.40
2022-11-13T10:30:11.728Z,22.40
2022-11-13T10:31:11.843Z,22.30
2022-11-13T10:32:11.728Z,22.40
2022-11-13T10:33:11.728Z,22.30
2022-11-13T10:34:11.728Z,22.40
2022-11-13T10:35:11.726Z,22.40
2022-11-13T10:36:11.726Z,22.40
2022-11-13T10:37:11.728Z,22.40
2022-11-13T10:38:11.724Z,22.40
2022-11-13T10:39:11.728Z,22.20
2022-11-13T10:40:11.724Z,22.40
2022-11-13T10:41:11.726Z,22.20
2022-11-13T10:42:11.723Z,22.40
2022-11-13T10:43:11.723Z,22.20
2022-11-13T10:44:11.722Z,22.30
2022-11-13T10:45:12.497Z,22.40
2022-11-13T10:46:11.722Z,22.30
2022-11-13T10:47:11.840Z,22.30
2022-11-13T10:48:11.722Z,22.20
2022-11-13T10:49:11.722Z,22.20
2022-11-13T10:50:11.721Z,22.20
2022-11-13T10:51:11.720Z,22.30
2022-11-13T10:52:11.720Z,22.30
2022-11-13T10:53:11.720Z,22.40
2022-11-13T10:54:11.720Z,22.30
2022-11-13T10:55:11.721Z,22.20
2022-11-13T10:56:11.718Z,22.30
2022-11-13T10:57:11.718Z,22.30
2022-11-13T10:58:11.720Z,22.20
2022-11-13T10:59:11.719Z,22.30
2022-11-13T11:00:11.719Z,22.11
2022-11-13T11:01:11.799Z,22.30
2022-11-13T11:02:11.719Z,22.30
2022-11-13T11:03:11.833Z,22.30
2022-11-13T11:04:11.717Z,22.20
2022-11-13T11:05:11.718Z,22.20
2022-11-13T11:06:11.715Z,22.20
2022-11-13T11:07:20.236Z,22.30
2022-11-13T11:08:11.875Z,22.20
2022-11-13T11:09:11.716Z,22.20
2022-11-13T11:10:11.863Z,22.20
2022-11-13T11:11:11.714Z,22.20
2022-11-13T11:12:11.713Z,22.20
2022-11-13T11:13:11.715Z,22.30
2022-11-13T11:14:11.714Z,22.30
2022-11-13T11:15:11.713Z,22.20
2022-11-13T11:16:11.715Z,22.20
2022-11-13T11:17:11.713Z,22.20
2022-11-13T11:18:11.710Z,22.20
2022-11-13T11:19:11.830Z,22.20
2022-11-13T11:20:11.712Z,22.20
2022-11-13T11:21:11.711Z,22.20
2022-11-13T11:22:11.710Z,22.20
2022-11-13T11:23:11.709Z,22.20
2022-11-13T11:24:11.710Z,22.20
2022-11-13T11:25:11.714Z,22.20
2022-11-13T11:26:11.708Z,22.20
2022-11-13T11:27:11.708Z,22.20
2022-11-13T11:28:11.707Z,22.20
2022-11-13T11:29:11.709Z,22.20
2022-11-13T11:30:11.706Z,22.30
2022-11-13T11:31:11.705Z,22.20
2022-11-13T11:32:11.705Z,22.20
2022-11-13T11:33:11.706Z,22.30
2022-11-13T11:34:11.704Z,22.20
2022-11-13T11:35:11.826Z,22.20
2022-11-13T11:36:11.705Z,22.20
2022-11-13T11:37:11.705Z,22.20
2022-11-13T11:38:11.702Z,22.20
2022-11-13T11:39:11.702Z,22.20
2022-11-13T11:40:11.704Z,22.30
2022-11-13T11:41:16.200Z,22.20
2022-11-13T11:42:11.702Z,22.20
2022-11-13T11:43:11.701Z,22.20
2022-11-13T11:44:11.705Z,22.20
2022-11-13T11:45:11.704Z,22.20
2022-11-13T11:46:11.702Z,22.20
2022-11-13T11:47:11.700Z,22.20
2022-11-13T11:48:11.700Z,22.20
2022-11-13T11:49:11.700Z,22.20
2022-11-13T11:50:11.699Z,22.20
2022-11-13T11:51:11.817Z,22.20
2022-11-13T11:52:11.698Z,22.20
2022-11-13T11:53:11.699Z,22.30
2022-11-13T11:54:11.697Z,22.20
2022-11-13T11:55:11.697Z,22.11
2022-11-13T11:56:11.698Z,22.30
2022-11-13T11:57:11.697Z,22.30
2022-11-13T11:58:11.695Z,22.20
2022-11-13T11:59:11.695Z,22.30
2022-11-13T12:00:11.695Z,22.30
2022-11-13T12:01:11.696Z,22.30
2022-11-13T12:02:11.694Z,22.30
2022-11-13T12:03:11.697Z,22.30
2022-11-13T12:04:11.694Z,22.30
2022-11-13T12:05:17.002Z,22.40
2022-11-13T12:06:11.699Z,22.30
2022-11-13T12:07:11.869Z,22.30
2022-11-13T12:08:11.692Z,22.30
2022-11-13T12:09:11.707Z,22.20
2022-11-13T12:10:11.843Z,22.30
2022-11-13T12:11:11.691Z,22.30
2022-11-13T12:12:11.691Z,22.30
2022-11-13T12:13:11.693Z,22.20
2022-11-13T12:14:11.690Z,22.30
2022-11-13T12:15:11.690Z,22.20
2022-11-13T12:16:11.688Z,22.30
2022-11-13T12:17:16.912Z,22.30
2022-11-13T12:18:11.691Z,22.30
2022-11-13T12:19:11.690Z,22.20
2022-11-13T12:20:11.687Z,22.20
2022-11-13T12:21:11.688Z,22.20
2022-11-13T12:22:11.688Z,22.30
2022-11-13T12:23:11.804Z,22.20
2022-11-13T12:24:11.685Z,22.20
2022-11-13T12:25:11.687Z,22.30
2022-11-13T12:26:11.687Z,22.20
2022-11-13T12:27:11.686Z,22.20
2022-11-13T12:28:11.686Z,22.20
2022-11-13T12:29:11.684Z,22.30
2022-11-13T12:30:11.709Z,22.11
2022-11-13T12:31:11.684Z,22.20
2022-11-13T12:32:11.682Z,22.30
2022-11-13T12:33:11.684Z,22.30
2022-11-13T12:34:11.684Z,22.20
2022-11-13T12:35:11.683Z,22.20
2022-11-13T12:36:11.680Z,22.20
2022-11-13T12:37:11.684Z,22.20
2022-11-13T12:38:11.683Z,22.30
2022-11-13T12:39:11.797Z,22.20
2022-11-13T12:40:11.733Z,22.11
2022-11-13T12:41:11.680Z,22.30
2022-11-13T12:42:11.679Z,22.20
2022-11-13T12:43:11.685Z,22.11
2022-11-13T12:44:11.678Z,22.20
2022-11-13T12:45:11.680Z,22.11
2022-11-13T12:46:11.716Z,22.11
2022-11-13T12:47:11.678Z,22.11
2022-11-13T12:48:11.678Z,22.20
2022-11-13T12:49:11.680Z,22.11
2022-11-13T12:50:11.679Z,22.20
2022-11-13T12:51:11.676Z,22.20
2022-11-13T12:52:11.676Z,22.20